createdAt,value
2023-03-11T00:00:28.878Z,14.27
2023-03-11T00:02:58.732Z,14.65
2023-03-11T00:05:28.958Z,14.59
2023-03-11T00:07:57.661Z,14.53
2023-03-11T00:10:34.604Z,14.22
2023-03-11T00:13:03.934Z,13.99
2023-03-11T00:15:32.425Z,13.83
2023-03-11T00:18:03.188Z,13.89
2023-03-11T00:20:37.817Z,13.83
2023-03-11T00:23:07.481Z,13.90
2023-03-11T00:25:37.668Z,13.88
2023-03-11T00:28:10.700Z,13.94
2023-03-11T00:31:17.178Z,13.80
2023-03-11T00:33:46.068Z,14.01
2023-03-11T00:36:34.087Z,14.27
2023-03-11T00:39:06.762Z,14.12
2023-03-11T00:41:35.870Z,14.06
2023-03-11T00:44:06.986Z,14.19
2023-03-11T00:46:34.748Z,14.05
2023-03-11T00:49:02.617Z,14.03
2023-03-11T00:51:32.017Z,13.70
2023-03-11T00:54:01.491Z,13.44
2023-03-11T00:56:31.465Z,13.24
2023-03-11T00:58:59.606Z,13.28
2023-03-11T01:01:27.899Z,13.59
2023-03-11T01:03:55.788Z,13.22
2023-03-11T01:06:26.133Z,13.11
2023-03-11T01:08:55.831Z,13.23
2023-03-11T01:11:23.682Z,13.19
2023-03-11T01:13:51.455Z,13.33
2023-03-11T01:16:19.576Z,13.20
2023-03-11T01:18:47.940Z,13.04
2023-03-11T01:21:15.987Z,12.93
2023-03-11T01:23:46.293Z,13.17
2023-03-11T01:26:15.722Z,13.13
2023-03-11T01:28:43.440Z,13.22
2023-03-11T01:31:11.342Z,13.25
2023-03-11T01:33:40.458Z,13.19
2023-03-11T01:36:09.383Z,12.96
2023-03-11T01:38:39.368Z,13.07
2023-03-11T01:41:09.693Z,13.13
2023-03-11T01:43:41.121Z,13.18
2023-03-11T01:46:26.049Z,13.37
2023-03-11T01:49:13.259Z,13.22
2023-03-11T01:51:51.374Z,13.22
2023-03-11T01:54:41.669Z,13.19
2023-03-11T01:57:13.529Z,13.07
2023-03-11T01:59:57.415Z,13.10
2023-03-11T02:02:32.408Z,13.00
2023-03-11T02:05:05.145Z,12.76
2023-03-11T02:07:33.359Z,12.76
2023-03-11T02:10:03.308Z,12.88
2023-03-11T02:12:36.490Z,13.14
2023-03-11T02:15:05.221Z,13.01
2023-03-11T02:17:36.811Z,12.96
2023-03-11T02:20:22.716Z,12.93
2023-03-11T02:22:50.975Z,12.96
2023-03-11T02:25:24.947Z,13.02
2023-03-11T02:27:56.060Z,12.93
2023-03-11T02:30:29.295Z,12.72
2023-03-11T02:32:57.344Z,12.45
2023-03-11T02:35:26.246Z,12.44
2023-03-11T02:37:56.204Z,12.56
2023-03-11T02:40:24.458Z,12.70
2023-03-11T02:43:02.114Z,12.36
2023-03-11T02:45:32.065Z,12.42
2023-03-11T02:48:03.790Z,12.43
2023-03-11T02:50:37.776Z,12.31
2023-03-11T02:53:06.661Z,12.40
2023-03-11T02:55:34.540Z,12.27
2023-03-11T02:58:02.689Z,12.15
2023-03-11T03:00:32.421Z,12.49
2023-03-11T03:03:04.863Z,12.50
2023-03-11T03:05:32.653Z,12.37
2023-03-11T03:08:03.017Z,12.14
2023-03-11T03:10:31.334Z,12.27
2023-03-11T03:12:59.544Z,12.25
2023-03-11T03:15:27.229Z,12.60
2023-03-11T03:17:54.959Z,12.32
2023-03-11T03:20:24.318Z,12.56
2023-03-11T03:22:56.330Z,12.46
2023-03-11T03:25:28.635Z,12.81
2023-03-11T03:27:58.958Z,12.21
2023-03-11T03:30:29.684Z,12.34
2023-03-11T03:32:57.463Z,12.08
2023-03-11T03:35:25.373Z,12.36
2023-03-11T03:38:21.821Z,12.03
2023-03-11T03:40:51.731Z,12.08
2023-03-11T03:43:22.475Z,12.34
2023-03-11T03:46:03.032Z,12.81
2023-03-11T03:48:36.625Z,13.02
2023-03-11T03:51:09.762Z,13.41
2023-03-11T03:53:42.212Z,13.12
2023-03-11T03:56:12.726Z,13.30
2023-03-11T03:58:42.004Z,13.33
2023-03-11T04:01:11.470Z,13.00
2023-03-11T04:03:40.223Z,12.69
2023-03-11T04:06:22.532Z,12.64
2023-03-11T04:08:55.994Z,12.82
2023-03-11T04:11:29.000Z,12.98
2023-03-11T04:13:57.216Z,13.13
2023-03-11T04:16:25.670Z,12.62
2023-03-11T04:18:59.612Z,12.72
2023-03-11T04:21:27.791Z,12.77
2023-03-11T04:23:56.698Z,12.62
2023-03-11T04:26:30.017Z,12.56
2023-03-11T04:28:57.876Z,12.44
2023-03-11T04:31:28.258Z,13.03
2023-03-11T04:33:57.069Z,12.93
2023-03-11T04:36:25.285Z,12.66
2023-03-11T04:38:53.818Z,12.73
2023-03-11T04:41:22.848Z,12.32
2023-03-11T04:43:51.872Z,12.46
2023-03-11T04:46:20.021Z,12.38
2023-03-11T04:48:48.153Z,12.66
2023-03-11T04:51:16.860Z,12.55
2023-03-11T04:53:45.045Z,12.71
2023-03-11T04:56:13.301Z,12.84
2023-03-11T04:58:41.541Z,13.17
2023-03-11T05:01:11.724Z,12.71
2023-03-11T05:03:39.757Z,12.78
2023-03-11T05:06:14.747Z,13.14
2023-03-11T05:08:42.736Z,12.73
2023-03-11T05:11:10.773Z,12.88
2023-03-11T05:13:38.972Z,12.53
2023-03-11T05:16:07.120Z,12.64
2023-03-11T05:18:35.502Z,12.39
2023-03-11T05:21:04.310Z,12.61
2023-03-11T05:23:34.215Z,12.79
2023-03-11T05:26:03.887Z,12.74
2023-03-11T05:28:34.243Z,12.73
2023-03-11T05:31:03.115Z,12.72
2023-03-11T05:33:35.988Z,12.46
2023-03-11T05:36:08.823Z,12.35
2023-03-11T05:38:42.921Z,12.39
2023-03-11T05:41:17.927Z,12.33
2023-03-11T05:43:46.663Z,12.32
2023-03-11T05:46:15.720Z,12.41
2023-03-11T05:48:43.625Z,12.08
2023-03-11T05:51:12.950Z,11.91
2023-03-11T05:53:48.791Z,11.88
2023-03-11T05:56:23.721Z,11.90
2023-03-11T05:58:53.371Z,11.77
2023-03-11T06:01:21.441Z,11.89
2023-03-11T06:03:49.866Z,12.10
2023-03-11T06:06:18.059Z,12.29
2023-03-11T06:08:50.074Z,12.25
2023-03-11T06:11:45.273Z,11.90
2023-03-11T06:14:16.598Z,12.26
2023-03-11T06:16:46.988Z,12.88
2023-03-11T06:19:14.816Z,12.47
2023-03-11T06:21:47.597Z,12.26
2023-03-11T06:24:17.344Z,12.23
2023-03-11T06:26:52.280Z,12.37
2023-03-11T06:29:24.557Z,11.96
2023-03-11T06:31:55.470Z,12.56
2023-03-11T06:34:26.403Z,12.72
2023-03-11T06:40:12.909Z,12.47
2023-03-11T06:42:42.468Z,12.69
2023-03-11T06:45:15.894Z,12.65
2023-03-11T06:47:45.108Z,12.63
2023-03-11T06:50:13.486Z,12.54
2023-03-11T06:52:41.149Z,12.63
2023-03-11T06:55:10.218Z,12.80
2023-03-11T06:57:41.047Z,12.82
2023-03-11T07:00:12.628Z,12.46
2023-03-11T07:02:43.258Z,12.55
2023-03-11T07:05:12.742Z,12.72
2023-03-11T07:07:41.320Z,13.11
2023-03-11T07:10:10.111Z,13.01
2023-03-11T07:12:40.258Z,13.16
2023-03-11T07:15:09.478Z,12.85
2023-03-11T07:17:37.930Z,12.80
2023-03-11T07:20:06.377Z,12.85
2023-03-11T07:22:34.237Z,13.25
2023-03-11T07:25:01.849Z,13.37
2023-03-11T07:27:29.989Z,13.60
2023-03-11T07:29:57.671Z,13.54
2023-03-11T07:32:25.970Z,13.17
2023-03-11T07:34:57.035Z,13.59
2023-03-11T07:37:25.386Z,13.95
2023-03-11T07:39:53.482Z,14.11
2023-03-11T07:42:31.835Z,14.16
2023-03-11T07:45:10.790Z,14.11
2023-03-11T07:47:39.034Z,14.28
2023-03-11T07:50:07.118Z,13.94
2023-03-11T07:52:38.080Z,13.98
2023-03-11T07:55:06.440Z,13.77
2023-03-11T07:57:50.316Z,14.20
2023-03-11T08:00:19.486Z,13.92
2023-03-11T08:02:47.586Z,14.03
2023-03-11T08:05:15.439Z,13.84
2023-03-11T08:07:43.018Z,14.14
2023-03-11T08:10:11.381Z,14.37
2023-03-11T08:12:40.587Z,14.29
2023-03-11T08:15:09.464Z,14.34
2023-03-11T08:17:37.393Z,14.45
2023-03-11T08:20:08.562Z,14.03
2023-03-11T08:22:38.099Z,14.28
2023-03-11T08:25:09.251Z,14.21
2023-03-11T08:27:39.018Z,14.24
2023-03-11T08:30:08.481Z,14.10
2023-03-11T08:32:37.649Z,14.32
2023-03-11T08:35:06.294Z,14.32
2023-03-11T08:37:34.210Z,13.88
2023-03-11T08:40:02.010Z,13.91
2023-03-11T08:42:30.630Z,13.91
2023-03-11T08:44:58.929Z,14.02
2023-03-11T08:47:27.004Z,14.22
2023-03-11T08:49:56.152Z,14.23
2023-03-11T08:52:24.149Z,14.40
2023-03-11T08:54:57.550Z,14.32
2023-03-11T08:57:26.116Z,14.38
2023-03-11T08:59:54.517Z,14.68
2023-03-11T09:02:22.583Z,14.68
2023-03-11T09:04:51.017Z,15.01
2023-03-11T09:07:19.682Z,15.01
2023-03-11T09:09:53.932Z,14.93
2023-03-11T09:12:30.528Z,15.13
2023-03-11T09:14:59.516Z,15.12
2023-03-11T09:17:27.561Z,15.49
2023-03-11T09:19:57.022Z,15.25
2023-03-11T09:22:25.483Z,15.57
2023-03-11T09:24:53.097Z,15.39
2023-03-11T09:27:20.937Z,15.70
2023-03-11T09:29:48.977Z,15.48
2023-03-11T09:32:26.875Z,15.37
2023-03-11T09:34:54.746Z,15.76
2023-03-11T09:37:22.536Z,15.80
2023-03-11T09:39:51.738Z,15.84
2023-03-11T09:42:41.907Z,15.89
2023-03-11T09:45:18.351Z,16.03
2023-03-11T09:48:24.706Z,16.03
2023-03-11T09:51:01.391Z,16.27
2023-03-11T09:53:42.085Z,16.35
2023-03-11T09:56:15.265Z,16.33
2023-03-11T09:59:05.985Z,16.14
2023-03-11T10:01:39.190Z,16.15
2023-03-11T10:04:33.232Z,16.39
2023-03-11T10:07:07.228Z,16.84
2023-03-11T10:09:51.493Z,16.54
2023-03-11T10:12:45.408Z,16.38
2023-03-11T10:15:22.289Z,16.32
2023-03-11T10:18:05.415Z,16.17
2023-03-11T10:21:01.548Z,16.26
2023-03-11T10:24:16.919Z,16.70
2023-03-11T10:27:16.178Z,16.63
2023-03-11T10:29:52.641Z,16.65
2023-03-11T10:32:39.931Z,16.53
2023-03-11T10:35:24.970Z,16.67
2023-03-11T10:38:08.810Z,16.55
2023-03-11T10:40:45.488Z,16.81
2023-03-11T10:43:29.240Z,16.57
2023-03-11T10:45:57.736Z,16.66
2023-03-11T10:48:26.711Z,16.42
2023-03-11T10:51:23.139Z,16.38
2023-03-11T10:53:59.885Z,16.49
2023-03-11T10:56:35.814Z,16.39
2023-03-11T10:59:09.277Z,16.66
2023-03-11T11:01:37.661Z,16.61
2023-03-11T11:04:40.759Z,17.11
2023-03-11T11:07:39.500Z,17.19
2023-03-11T11:10:30.965Z,17.41
2023-03-11T11:13:19.320Z,17.43
2023-03-11T11:15:58.447Z,17.37
2023-03-11T11:18:40.381Z,17.43
2023-03-11T11:21:16.008Z,17.49
2023-03-11T11:23:59.280Z,17.93
2023-03-11T11:26:30.412Z,17.63
2023-03-11T11:29:15.587Z,17.56
2023-03-11T11:31:45.663Z,17.31
2023-03-11T11:34:32.818Z,17.47
2023-03-11T11:37:26.519Z,17.56
2023-03-11T11:40:30.264Z,17.80
2023-03-11T11:43:21.817Z,17.79
2023-03-11T11:45:57.566Z,17.86
2023-03-11T11:48:35.166Z,17.86
2023-03-11T11:51:15.696Z,17.93
2023-03-11T11:54:01.820Z,18.16
2023-03-11T11:56:29.662Z,18.25
2023-03-11T11:59:03.010Z,18.27
2023-03-11T12:01:46.108Z,18.59
2023-03-11T12:04:32.545Z,18.63
2023-03-11T12:07:07.200Z,18.91
2023-03-11T12:10:26.063Z,18.86
2023-03-11T12:13:06.808Z,18.91
2023-03-11T12:15:44.667Z,18.96
2023-03-11T12:18:26.555Z,18.80
2023-03-11T12:20:58.730Z,18.41
2023-03-11T12:23:53.608Z,18.31
2023-03-11T12:26:25.487Z,18.71
2023-03-11T12:29:31.926Z,19.21
2023-03-11T12:32:05.531Z,18.85
2023-03-11T12:34:36.639Z,18.69
2023-03-11T12:37:15.031Z,19.06
2023-03-11T12:39:43.593Z,18.92
2023-03-11T12:42:11.483Z,19.27
2023-03-11T12:44:44.300Z,19.01
2023-03-11T12:47:12.487Z,18.99
2023-03-11T12:49:47.787Z,19.01
2023-03-11T12:52:19.035Z,19.08
2023-03-11T12:55:13.820Z,19.04
2023-03-11T12:57:58.095Z,19.35
2023-03-11T13:00:35.462Z,19.48
2023-03-11T13:03:09.221Z,19.03
2023-03-11T13:05:48.160Z,18.87
2023-03-11T13:08:34.587Z,19.33
2023-03-11T13:11:22.821Z,19.39
2023-03-11T13:13:50.625Z,19.48
2023-03-11T13:16:20.429Z,19.53
2023-03-11T13:18:50.060Z,19.83
2023-03-11T13:21:39.410Z,19.38
2023-03-11T13:24:30.684Z,19.26
2023-03-11T13:27:00.477Z,19.26
2023-03-11T13:29:53.068Z,19.22
2023-03-11T13:32:52.161Z,19.30
2023-03-11T13:35:32.099Z,19.63
2023-03-11T13:38:37.544Z,19.68
2023-03-11T13:41:20.808Z,19.72
2023-03-11T13:43:51.319Z,19.53
2023-03-11T13:46:31.932Z,19.88
2023-03-11T13:49:15.546Z,19.82
2023-03-11T13:51:46.719Z,19.80
2023-03-11T13:54:24.014Z,19.89
2023-03-11T13:56:58.249Z,19.62
2023-03-11T13:59:29.796Z,19.59
2023-03-11T14:02:01.876Z,19.45
2023-03-11T14:04:38.097Z,19.81
2023-03-11T14:07:23.009Z,19.58
2023-03-11T14:09:51.027Z,19.62
2023-03-11T14:12:19.203Z,19.42
2023-03-11T14:14:55.184Z,19.61
2023-03-11T14:17:24.559Z,19.82
2023-03-11T14:20:08.235Z,19.78
2023-03-11T14:22:37.334Z,19.60
2023-03-11T14:25:09.549Z,19.50
2023-03-11T14:27:49.190Z,19.28
2023-03-11T14:30:24.085Z,19.32
2023-03-11T14:33:19.287Z,19.48
2023-03-11T14:35:58.688Z,19.42
2023-03-11T14:38:29.827Z,19.82
2023-03-11T14:41:05.469Z,19.36
2023-03-11T14:43:39.193Z,19.18
2023-03-11T14:46:08.795Z,19.15
2023-03-11T14:48:41.235Z,19.06
2023-03-11T14:51:18.496Z,19.29
2023-03-11T14:54:03.892Z,19.41
2023-03-11T14:56:36.806Z,19.16
2023-03-11T14:59:27.507Z,19.23
2023-03-11T15:02:02.752Z,19.35
2023-03-11T15:04:38.042Z,19.09
2023-03-11T15:07:09.940Z,19.30
2023-03-11T15:09:41.243Z,19.22
2023-03-11T15:12:34.287Z,19.06
2023-03-11T15:15:04.880Z,19.10
2023-03-11T15:17:40.906Z,19.09
2023-03-11T15:20:32.265Z,19.20
2023-03-11T15:23:07.825Z,19.14
2023-03-11T15:25:39.418Z,19.12
2023-03-11T15:28:25.499Z,19.11
2023-03-11T15:31:15.859Z,18.94
2023-03-11T15:33:44.125Z,18.70
2023-03-11T15:36:32.667Z,18.74
2023-03-11T15:39:33.139Z,18.95
2023-03-11T15:42:19.965Z,18.93
2023-03-11T15:45:14.343Z,18.84
2023-03-11T15:47:42.488Z,18.91
2023-03-11T15:50:24.728Z,18.80
2023-03-11T15:52:57.990Z,18.58
2023-03-11T15:55:30.362Z,18.52
2023-03-11T15:58:11.623Z,18.72
2023-03-11T16:00:42.461Z,18.44
2023-03-11T16:03:11.560Z,18.38
2023-03-11T16:05:43.728Z,18.62
2023-03-11T16:08:14.558Z,18.67
2023-03-11T16:10:43.373Z,18.51
2023-03-11T16:13:14.421Z,18.57
2023-03-11T16:15:43.500Z,18.52
2023-03-11T16:18:14.730Z,18.52
2023-03-11T16:20:52.743Z,18.38
2023-03-11T16:23:44.734Z,18.28
2023-03-11T16:26:18.273Z,18.37
2023-03-11T16:28:46.152Z,18.41
2023-03-11T16:31:14.391Z,18.27
2023-03-11T16:33:42.312Z,18.24
2023-03-11T16:36:11.284Z,18.20
2023-03-11T16:38:45.981Z,17.83
2023-03-11T16:41:17.366Z,18.05
2023-03-11T16:43:45.808Z,17.94
2023-03-11T16:46:15.068Z,17.94
2023-03-11T16:48:43.038Z,17.77
2023-03-11T16:51:11.003Z,17.69
2023-03-11T16:53:39.354Z,17.70
2023-03-11T16:56:07.639Z,17.58
2023-03-11T16:58:38.813Z,17.51
2023-03-11T17:01:06.766Z,17.48
2023-03-11T17:03:42.478Z,17.47
2023-03-11T17:06:13.311Z,17.48
2023-03-11T17:08:41.641Z,17.57
2023-03-11T17:11:20.580Z,17.51
2023-03-11T17:13:53.340Z,17.25
2023-03-11T17:16:27.233Z,17.39
2023-03-11T17:18:55.535Z,17.35
2023-03-11T17:21:24.046Z,17.43
2023-03-11T17:23:54.829Z,17.52
2023-03-11T17:26:23.348Z,17.39
2023-03-11T17:28:52.002Z,17.30
2023-03-11T17:31:19.962Z,17.14
2023-03-11T17:33:49.074Z,17.18
2023-03-11T17:36:18.676Z,17.28
2023-03-11T17:38:48.102Z,17.00
2023-03-11T17:41:17.988Z,17.10
2023-03-11T17:43:46.498Z,17.08
2023-03-11T17:46:30.471Z,17.10
2023-03-11T17:49:03.304Z,17.16
2023-03-11T17:51:31.037Z,16.98
2023-03-11T17:53:59.926Z,16.91
2023-03-11T17:56:58.147Z,17.03
2023-03-11T17:59:35.322Z,17.04
2023-03-11T18:02:05.906Z,16.87
2023-03-11T18:04:34.124Z,16.98
2023-03-11T18:07:04.658Z,16.89
2023-03-11T18:09:32.655Z,16.81
2023-03-11T18:12:00.288Z,16.72
2023-03-11T18:14:28.357Z,16.79
2023-03-11T18:16:56.883Z,16.44
2023-03-11T18:19:25.389Z,16.67
2023-03-11T18:21:53.599Z,16.80
2023-03-11T18:24:21.450Z,16.91
2023-03-11T18:26:49.360Z,16.73
2023-03-11T18:29:17.137Z,16.72
2023-03-11T18:31:45.125Z,16.62
2023-03-11T18:34:13.746Z,16.45
2023-03-11T18:36:42.536Z,16.36
2023-03-11T18:39:14.210Z,16.54
2023-03-11T18:41:43.059Z,16.39
2023-03-11T18:44:11.416Z,16.53
2023-03-11T18:46:41.589Z,16.61
2023-03-11T18:49:14.180Z,16.39
2023-03-11T18:51:42.341Z,16.38
2023-03-11T18:54:10.741Z,16.62
2023-03-11T18:56:38.616Z,16.65
2023-03-11T18:59:12.260Z,16.57
2023-03-11T19:01:40.419Z,16.47
2023-03-11T19:04:10.581Z,16.60
2023-03-11T19:06:38.438Z,16.31
2023-03-11T19:09:06.980Z,16.28
2023-03-11T19:11:35.205Z,16.42
2023-03-11T19:14:02.984Z,15.99
2023-03-11T19:16:30.765Z,15.91
2023-03-11T19:18:58.476Z,15.81
2023-03-11T19:21:26.900Z,15.72
2023-03-11T19:23:56.712Z,15.45
2023-03-11T19:26:41.447Z,15.66
2023-03-11T19:29:10.264Z,15.53
2023-03-11T19:31:43.621Z,15.31
2023-03-11T19:34:11.710Z,15.30
2023-03-11T19:36:39.665Z,15.30
2023-03-11T19:39:07.658Z,15.22
2023-03-11T19:41:36.056Z,15.34
2023-03-11T19:44:04.523Z,15.33
2023-03-11T19:46:34.956Z,15.20
2023-03-11T19:49:04.228Z,15.17
2023-03-11T19:51:46.590Z,15.26
2023-03-11T19:54:16.693Z,15.10
2023-03-11T19:56:44.493Z,14.93
2023-03-11T19:59:12.261Z,15.09
2023-03-11T20:01:42.557Z,15.18
2023-03-11T20:04:10.866Z,14.95
2023-03-11T20:06:39.276Z,14.98
2023-03-11T20:09:07.228Z,14.88
2023-03-11T20:11:39.992Z,15.07
2023-03-11T20:14:09.782Z,14.96
2023-03-11T20:16:37.801Z,15.23
2023-03-11T20:19:05.466Z,15.00
2023-03-11T20:21:33.663Z,15.07
2023-03-11T20:24:01.655Z,14.86
2023-03-11T20:26:29.418Z,14.77
2023-03-11T20:28:58.580Z,14.83
2023-03-11T20:31:29.870Z,14.81
2023-03-11T20:33:59.342Z,14.77
2023-03-11T20:36:30.085Z,14.78
2023-03-11T20:38:58.173Z,14.70
2023-03-11T20:41:30.414Z,14.71
2023-03-11T20:44:01.187Z,14.68
2023-03-11T20:46:28.921Z,14.54
2023-03-11T20:48:56.853Z,14.58
2023-03-11T20:51:25.425Z,14.56
2023-03-11T20:53:53.902Z,14.52
2023-03-11T20:56:24.973Z,14.54
2023-03-11T20:58:56.036Z,14.48
2023-03-11T21:01:28.198Z,14.29
2023-03-11T21:03:59.719Z,14.38
2023-03-11T21:06:32.662Z,14.19
2023-03-11T21:09:03.606Z,14.51
2023-03-11T21:11:32.297Z,14.24
2023-03-11T21:14:00.688Z,14.32
2023-03-11T21:16:28.491Z,14.12
2023-03-11T21:18:56.946Z,14.27
2023-03-11T21:21:24.751Z,14.14
2023-03-11T21:23:52.977Z,13.91
2023-03-11T21:26:20.811Z,14.03
2023-03-11T21:28:49.437Z,14.11
2023-03-11T21:31:20.577Z,14.07
2023-03-11T21:33:49.322Z,14.20
2023-03-11T21:36:17.474Z,14.21
2023-03-11T21:38:47.326Z,14.32
2023-03-11T21:41:26.075Z,14.14
2023-03-11T21:43:55.193Z,13.94
2023-03-11T21:46:26.926Z,14.22
2023-03-11T21:48:55.406Z,14.24
2023-03-11T21:51:23.396Z,14.09
2023-03-11T21:53:51.465Z,13.87
2023-03-11T21:56:19.930Z,14.03
2023-03-11T21:58:53.351Z,13.97
2023-03-11T22:01:21.588Z,13.97
2023-03-11T22:03:49.470Z,14.07
2023-03-11T22:06:17.604Z,14.17
2023-03-11T22:08:45.931Z,14.09
2023-03-11T22:11:19.072Z,14.20
2023-03-11T22:13:49.125Z,14.44
2023-03-11T22:16:19.123Z,14.07
2023-03-11T22:18:47.447Z,13.99
2023-03-11T22:21:16.344Z,14.12
2023-03-11T22:23:45.672Z,14.05
2023-03-11T22:26:14.552Z,14.17
2023-03-11T22:28:43.149Z,14.23
2023-03-11T22:31:13.376Z,14.01
2023-03-11T22:33:43.470Z,14.36
2023-03-11T22:36:11.266Z,14.22
2023-03-11T22:38:41.899Z,14.30
2023-03-11T22:41:11.119Z,14.32
2023-03-11T22:43:39.491Z,14.00
2023-03-11T22:46:07.876Z,13.97
2023-03-11T22:48:36.115Z,13.88
2023-03-11T22:51:05.793Z,13.97
2023-03-11T22:53:34.181Z,13.85
2023-03-11T22:56:10.443Z,13.81
2023-03-11T22:58:38.859Z,13.85
2023-03-11T23:01:07.414Z,13.94
2023-03-11T23:03:36.341Z,13.80
2023-03-11T23:06:07.746Z,13.77
2023-03-11T23:08:35.984Z,13.82
2023-03-11T23:11:14.546Z,14.07
2023-03-11T23:13:43.902Z,13.82
2023-03-11T23:16:16.470Z,13.84
2023-03-11T23:18:46.226Z,13.94
2023-03-11T23:21:35.760Z,14.08
2023-03-11T23:24:09.387Z,14.00
2023-03-11T23:26:43.310Z,13.94
2023-03-11T23:29:12.396Z,13.77
2023-03-11T23:31:40.540Z,13.83
2023-03-11T23:34:08.917Z,13.85
2023-03-11T23:36:39.056Z,13.66
2023-03-11T23:39:06.752Z,13.66
2023-03-11T23:41:35.979Z,13.66
2023-03-11T23:44:04.282Z,13.66
2023-03-11T23:46:32.524Z,13.58
2023-03-11T23:49:01.402Z,13.52
2023-03-11T23:51:29.291Z,13.62
2023-03-11T23:53:56.849Z,13.57
2023-03-11T23:56:25.004Z,13.62
2023-03-11T23:58:52.783Z,13.79
